sensor_id;sensor_type;location;lat;lon;timestamp;P1;durP1;ratioP1;P2;durP2;ratioP2
68353;SDS011;55274;43.060;25.618;2022-08-19T00:01:40;10.13;;;7.65;;
68353;SDS011;55274;43.060;25.618;2022-08-19T00:04:09;10.48;;;7.28;;
68353;SDS011;55274;43.060;25.618;2022-08-19T00:06:37;11.48;;;7.53;;
68353;SDS011;55274;43.060;25.618;2022-08-19T00:09:05;13.00;;;7.85;;
68353;SDS011;55274;43.060;25.618;2022-08-19T00:11:33;13.23;;;8.18;;
68353;SDS011;55274;43.060;25.618;2022-08-19T00:14:01;12.23;;;7.60;;
68353;SDS011;55274;43.060;25.618;2022-08-19T00:16:27;12.50;;;7.72;;
68353;SDS011;55274;43.060;25.618;2022-08-19T00:18:53;13.18;;;9.05;;
68353;SDS011;55274;43.060;25.618;2022-08-19T00:21:23;14.35;;;7.97;;
68353;SDS011;55274;43.060;25.618;2022-08-19T00:23:49;14.93;;;8.57;;
68353;SDS011;55274;43.060;25.618;2022-08-19T00:26:15;13.55;;;7.40;;
68353;SDS011;55274;43.060;25.618;2022-08-19T00:28:41;9.73;;;6.82;;
68353;SDS011;55274;43.060;25.618;2022-08-19T00:31:08;13.07;;;7.53;;
68353;SDS011;55274;43.060;25.618;2022-08-19T00:33:34;12.20;;;7.82;;
68353;SDS011;55274;43.060;25.618;2022-08-19T00:36:01;15.25;;;7.93;;
68353;SDS011;55274;43.060;25.618;2022-08-19T00:38:29;11.93;;;7.85;;
68353;SDS011;55274;43.060;25.618;2022-08-19T00:40:55;10.73;;;7.40;;
68353;SDS011;55274;43.060;25.618;2022-08-19T00:43:23;12.18;;;7.72;;
68353;SDS011;55274;43.060;25.618;2022-08-19T00:45:51;11.68;;;7.47;;
68353;SDS011;55274;43.060;25.618;2022-08-19T00:48:17;11.75;;;7.38;;
68353;SDS011;55274;43.060;25.618;2022-08-19T00:50:46;12.70;;;7.28;;
68353;SDS011;55274;43.060;25.618;2022-08-19T00:53:14;9.45;;;7.65;;
68353;SDS011;55274;43.060;25.618;2022-08-19T00:55:47;12.95;;;7.50;;
68353;SDS011;55274;43.060;25.618;2022-08-19T00:58:16;11.32;;;8.38;;
68353;SDS011;55274;43.060;25.618;2022-08-19T01:00:44;13.52;;;7.75;;
68353;SDS011;55274;43.060;25.618;2022-08-19T01:03:13;11.02;;;7.68;;
68353;SDS011;55274;43.060;25.618;2022-08-19T01:05:42;10.95;;;7.43;;
68353;SDS011;55274;43.060;25.618;2022-08-19T01:08:09;12.13;;;8.10;;
68353;SDS011;55274;43.060;25.618;2022-08-19T01:10:39;13.23;;;7.47;;
68353;SDS011;55274;43.060;25.618;2022-08-19T01:13:08;10.88;;;8.13;;
68353;SDS011;55274;43.060;25.618;2022-08-19T01:15:40;11.57;;;7.72;;
68353;SDS011;55274;43.060;25.618;2022-08-19T01:18:15;11.82;;;8.05;;
68353;SDS011;55274;43.060;25.618;2022-08-19T01:20:43;11.98;;;7.70;;
68353;SDS011;55274;43.060;25.618;2022-08-19T01:23:09;12.10;;;8.48;;
68353;SDS011;55274;43.060;25.618;2022-08-19T01:25:39;15.25;;;8.35;;
68353;SDS011;55274;43.060;25.618;2022-08-19T01:28:25;13.95;;;8.43;;
68353;SDS011;55274;43.060;25.618;2022-08-19T01:30:52;13.55;;;8.90;;
68353;SDS011;55274;43.060;25.618;2022-08-19T01:33:19;11.40;;;8.02;;
68353;SDS011;55274;43.060;25.618;2022-08-19T01:35:45;15.00;;;8.55;;
68353;SDS011;55274;43.060;25.618;2022-08-19T01:38:23;14.25;;;8.43;;
68353;SDS011;55274;43.060;25.618;2022-08-19T01:40:50;13.77;;;7.80;;
68353;SDS011;55274;43.060;25.618;2022-08-19T01:43:16;14.63;;;8.50;;
68353;SDS011;55274;43.060;25.618;2022-08-19T01:45:44;11.77;;;8.05;;
68353;SDS011;55274;43.060;25.618;2022-08-19T01:48:11;13.40;;;7.57;;
68353;SDS011;55274;43.060;25.618;2022-08-19T01:50:37;12.45;;;8.18;;
68353;SDS011;55274;43.060;25.618;2022-08-19T01:53:04;13.55;;;8.77;;
68353;SDS011;55274;43.060;25.618;2022-08-19T01:55:32;12.60;;;8.52;;
68353;SDS011;55274;43.060;25.618;2022-08-19T01:57:59;14.73;;;8.98;;
68353;SDS011;55274;43.060;25.618;2022-08-19T02:00:28;12.77;;;7.72;;
68353;SDS011;55274;43.060;25.618;2022-08-19T02:02:56;14.77;;;8.43;;
68353;SDS011;55274;43.060;25.618;2022-08-19T02:05:22;13.93;;;9.02;;
68353;SDS011;55274;43.060;25.618;2022-08-19T02:07:48;14.07;;;8.88;;
68353;SDS011;55274;43.060;25.618;2022-08-19T02:10:16;13.20;;;7.70;;
68353;SDS011;55274;43.060;25.618;2022-08-19T02:12:46;17.17;;;9.85;;
68353;SDS011;55274;43.060;25.618;2022-08-19T02:15:12;12.43;;;7.93;;
68353;SDS011;55274;43.060;25.618;2022-08-19T02:17:38;12.13;;;8.45;;
68353;SDS011;55274;43.060;25.618;2022-08-19T02:20:04;11.85;;;7.80;;
68353;SDS011;55274;43.060;25.618;2022-08-19T02:22:32;11.60;;;8.15;;
68353;SDS011;55274;43.060;25.618;2022-08-19T02:24:59;13.73;;;7.75;;
68353;SDS011;55274;43.060;25.618;2022-08-19T02:27:24;12.15;;;8.05;;
68353;SDS011;55274;43.060;25.618;2022-08-19T02:29:51;31.13;;;9.80;;
68353;SDS011;55274;43.060;25.618;2022-08-19T02:32:18;33.20;;;9.15;;
68353;SDS011;55274;43.060;25.618;2022-08-19T02:34:45;128.13;;;19.52;;
68353;SDS011;55274;43.060;25.618;2022-08-19T02:37:11;21.45;;;10.02;;
68353;SDS011;55274;43.060;25.618;2022-08-19T02:39:56;16.77;;;9.10;;
68353;SDS011;55274;43.060;25.618;2022-08-19T02:42:22;32.10;;;10.68;;
68353;SDS011;55274;43.060;25.618;2022-08-19T02:44:48;43.63;;;10.80;;
68353;SDS011;55274;43.060;25.618;2022-08-19T02:47:14;17.20;;;8.63;;
68353;SDS011;55274;43.060;25.618;2022-08-19T02:49:40;14.63;;;8.85;;
68353;SDS011;55274;43.060;25.618;2022-08-19T02:52:06;14.63;;;8.88;;
68353;SDS011;55274;43.060;25.618;2022-08-19T02:54:32;13.88;;;8.55;;
68353;SDS011;55274;43.060;25.618;2022-08-19T02:56:58;15.80;;;9.00;;
68353;SDS011;55274;43.060;25.618;2022-08-19T02:59:24;15.25;;;8.38;;
68353;SDS011;55274;43.060;25.618;2022-08-19T03:01:51;22.08;;;8.05;;
68353;SDS011;55274;43.060;25.618;2022-08-19T03:04:17;13.60;;;7.97;;
68353;SDS011;55274;43.060;25.618;2022-08-19T03:06:44;21.35;;;9.32;;
68353;SDS011;55274;43.060;25.618;2022-08-19T03:09:11;23.17;;;9.23;;
68353;SDS011;55274;43.060;25.618;2022-08-19T03:11:38;35.50;;;10.13;;
68353;SDS011;55274;43.060;25.618;2022-08-19T03:14:05;16.05;;;8.15;;
68353;SDS011;55274;43.060;25.618;2022-08-19T03:16:33;17.02;;;7.95;;
68353;SDS011;55274;43.060;25.618;2022-08-19T03:19:01;25.85;;;9.07;;
68353;SDS011;55274;43.060;25.618;2022-08-19T03:21:27;19.30;;;9.10;;
68353;SDS011;55274;43.060;25.618;2022-08-19T03:23:56;31.27;;;10.10;;
68353;SDS011;55274;43.060;25.618;2022-08-19T03:26:24;42.10;;;11.60;;
68353;SDS011;55274;43.060;25.618;2022-08-19T03:28:51;23.15;;;9.13;;
68353;SDS011;55274;43.060;25.618;2022-08-19T03:31:20;46.03;;;10.73;;
68353;SDS011;55274;43.060;25.618;2022-08-19T03:33:48;16.20;;;7.78;;
68353;SDS011;55274;43.060;25.618;2022-08-19T03:36:15;20.25;;;8.60;;
68353;SDS011;55274;43.060;25.618;2022-08-19T03:38:48;48.80;;;10.07;;
68353;SDS011;55274;43.060;25.618;2022-08-19T03:41:18;14.25;;;8.43;;
68353;SDS011;55274;43.060;25.618;2022-08-19T03:43:45;20.67;;;9.85;;
68353;SDS011;55274;43.060;25.618;2022-08-19T03:46:13;22.83;;;9.40;;
68353;SDS011;55274;43.060;25.618;2022-08-19T05:29:56;20.50;;;10.82;;
68353;SDS011;55274;43.060;25.618;2022-08-19T05:32:22;24.15;;;12.05;;
68353;SDS011;55274;43.060;25.618;2022-08-19T05:34:48;37.47;;;13.95;;
68353;SDS011;55274;43.060;25.618;2022-08-19T05:37:14;36.08;;;15.45;;
68353;SDS011;55274;43.060;25.618;2022-08-19T05:39:40;32.45;;;13.48;;
68353;SDS011;55274;43.060;25.618;2022-08-19T05:42:07;36.88;;;15.27;;
68353;SDS011;55274;43.060;25.618;2022-08-19T05:44:35;27.45;;;14.15;;
68353;SDS011;55274;43.060;25.618;2022-08-19T05:47:05;26.75;;;15.77;;
68353;SDS011;55274;43.060;25.618;2022-08-19T05:49:33;46.78;;;17.08;;
68353;SDS011;55274;43.060;25.618;2022-08-19T05:52:02;27.90;;;16.00;;
68353;SDS011;55274;43.060;25.618;2022-08-19T05:54:33;29.00;;;16.13;;
68353;SDS011;55274;43.060;25.618;2022-08-19T05:57:01;41.35;;;16.90;;
68353;SDS011;55274;43.060;25.618;2022-08-19T05:59:27;34.38;;;17.67;;
68353;SDS011;55274;43.060;25.618;2022-08-19T06:01:53;40.42;;;17.52;;
68353;SDS011;55274;43.060;25.618;2022-08-19T06:04:20;48.15;;;19.38;;
68353;SDS011;55274;43.060;25.618;2022-08-19T06:06:48;41.08;;;18.45;;
68353;SDS011;55274;43.060;25.618;2022-08-19T06:09:17;49.00;;;20.00;;
68353;SDS011;55274;43.060;25.618;2022-08-19T06:11:44;50.55;;;19.67;;
68353;SDS011;55274;43.060;25.618;2022-08-19T06:14:14;22.73;;;15.90;;
68353;SDS011;55274;43.060;25.618;2022-08-19T06:31:28;30.88;;;17.88;;
68353;SDS011;55274;43.060;25.618;2022-08-19T06:33:58;25.52;;;14.60;;
68353;SDS011;55274;43.060;25.618;2022-08-19T06:36:26;23.75;;;13.68;;
68353;SDS011;55274;43.060;25.618;2022-08-19T06:38:59;28.67;;;15.65;;
68353;SDS011;55274;43.060;25.618;2022-08-19T06:41:26;32.10;;;21.30;;
68353;SDS011;55274;43.060;25.618;2022-08-19T06:43:53;27.77;;;19.98;;
68353;SDS011;55274;43.060;25.618;2022-08-19T06:46:19;22.67;;;16.50;;
68353;SDS011;55274;43.060;25.618;2022-08-19T06:48:46;30.38;;;15.07;;
68353;SDS011;55274;43.060;25.618;2022-08-19T06:51:14;24.35;;;15.13;;
68353;SDS011;55274;43.060;25.618;2022-08-19T06:53:43;32.33;;;15.52;;
68353;SDS011;55274;43.060;25.618;2022-08-19T06:56:18;36.35;;;15.20;;
68353;SDS011;55274;43.060;25.618;2022-08-19T07:11:11;11.93;;;6.53;;
68353;SDS011;55274;43.060;25.618;2022-08-19T07:13:38;19.63;;;7.07;;
68353;SDS011;55274;43.060;25.618;2022-08-19T07:16:08;15.82;;;6.22;;
68353;SDS011;55274;43.060;25.618;2022-08-19T07:18:36;12.63;;;6.30;;
68353;SDS011;55274;43.060;25.618;2022-08-19T07:21:06;12.80;;;5.75;;
68353;SDS011;55274;43.060;25.618;2022-08-19T07:23:33;14.82;;;5.95;;
68353;SDS011;55274;43.060;25.618;2022-08-19T07:26:04;18.02;;;5.72;;
68353;SDS011;55274;43.060;25.618;2022-08-19T07:28:39;19.90;;;5.57;;
68353;SDS011;55274;43.060;25.618;2022-08-19T07:31:06;9.98;;;5.18;;
68353;SDS011;55274;43.060;25.618;2022-08-19T07:33:32;9.70;;;5.13;;
68353;SDS011;55274;43.060;25.618;2022-08-19T07:36:00;17.00;;;6.45;;
68353;SDS011;55274;43.060;25.618;2022-08-19T07:38:26;9.27;;;5.22;;
68353;SDS011;55274;43.060;25.618;2022-08-19T07:40:52;10.10;;;5.28;;
68353;SDS011;55274;43.060;25.618;2022-08-19T07:43:18;7.93;;;4.75;;
68353;SDS011;55274;43.060;25.618;2022-08-19T07:45:45;10.07;;;5.03;;
68353;SDS011;55274;43.060;25.618;2022-08-19T07:48:12;15.50;;;5.18;;
68353;SDS011;55274;43.060;25.618;2022-08-19T07:50:39;8.98;;;4.60;;
68353;SDS011;55274;43.060;25.618;2022-08-19T07:53:05;16.17;;;5.93;;
68353;SDS011;55274;43.060;25.618;2022-08-19T07:55:30;13.93;;;4.90;;
68353;SDS011;55274;43.060;25.618;2022-08-19T07:57:56;7.90;;;4.60;;
68353;SDS011;55274;43.060;25.618;2022-08-19T08:00:22;12.65;;;4.97;;
68353;SDS011;55274;43.060;25.618;2022-08-19T08:02:49;16.60;;;4.93;;
68353;SDS011;55274;43.060;25.618;2022-08-19T08:05:14;21.05;;;5.70;;
68353;SDS011;55274;43.060;25.618;2022-08-19T08:07:59;10.15;;;5.30;;
68353;SDS011;55274;43.060;25.618;2022-08-19T08:10:43;11.38;;;5.38;;
68353;SDS011;55274;43.060;25.618;2022-08-19T08:13:09;9.18;;;5.00;;
68353;SDS011;55274;43.060;25.618;2022-08-19T08:15:35;6.78;;;4.68;;
68353;SDS011;55274;43.060;25.618;2022-08-19T08:18:03;17.73;;;5.00;;
68353;SDS011;55274;43.060;25.618;2022-08-19T08:20:29;16.35;;;5.47;;
68353;SDS011;55274;43.060;25.618;2022-08-19T08:22:55;15.80;;;5.75;;
68353;SDS011;55274;43.060;25.618;2022-08-19T08:25:39;21.17;;;5.28;;
68353;SDS011;55274;43.060;25.618;2022-08-19T08:28:05;8.35;;;4.90;;
68353;SDS011;55274;43.060;25.618;2022-08-19T08:30:32;12.48;;;5.13;;
68353;SDS011;55274;43.060;25.618;2022-08-19T08:33:00;8.25;;;4.72;;
68353;SDS011;55274;43.060;25.618;2022-08-19T08:35:26;16.77;;;5.50;;
68353;SDS011;55274;43.060;25.618;2022-08-19T08:37:53;10.60;;;4.95;;
68353;SDS011;55274;43.060;25.618;2022-08-19T08:45:32;15.35;;;5.20;;
68353;SDS011;55274;43.060;25.618;2022-08-19T08:48:02;9.75;;;4.72;;
68353;SDS011;55274;43.060;25.618;2022-08-19T08:50:40;14.45;;;5.18;;
68353;SDS011;55274;43.060;25.618;2022-08-19T08:53:10;22.08;;;5.13;;
68353;SDS011;55274;43.060;25.618;2022-08-19T08:55:41;16.33;;;5.47;;
68353;SDS011;55274;43.060;25.618;2022-08-19T08:58:09;9.77;;;4.80;;
68353;SDS011;55274;43.060;25.618;2022-08-19T09:00:43;13.60;;;5.25;;
68353;SDS011;55274;43.060;25.618;2022-08-19T09:03:44;11.32;;;4.38;;
68353;SDS011;55274;43.060;25.618;2022-08-19T09:09:05;14.90;;;4.93;;
68353;SDS011;55274;43.060;25.618;2022-08-19T09:16:57;6.35;;;4.47;;
68353;SDS011;55274;43.060;25.618;2022-08-19T09:19:24;7.93;;;4.60;;
68353;SDS011;55274;43.060;25.618;2022-08-19T09:21:50;10.10;;;4.68;;
68353;SDS011;55274;43.060;25.618;2022-08-19T09:24:16;27.63;;;5.35;;
68353;SDS011;55274;43.060;25.618;2022-08-19T09:26:42;8.13;;;4.10;;
68353;SDS011;55274;43.060;25.618;2022-08-19T09:29:10;20.63;;;4.70;;
68353;SDS011;55274;43.060;25.618;2022-08-19T09:31:36;20.67;;;5.60;;
68353;SDS011;55274;43.060;25.618;2022-08-19T09:34:03;8.32;;;4.63;;
68353;SDS011;55274;43.060;25.618;2022-08-19T09:36:29;10.57;;;4.45;;
68353;SDS011;55274;43.060;25.618;2022-08-19T09:39:02;5.88;;;4.03;;
68353;SDS011;55274;43.060;25.618;2022-08-19T09:41:29;5.93;;;4.05;;
68353;SDS011;55274;43.060;25.618;2022-08-19T09:43:55;6.90;;;4.13;;
68353;SDS011;55274;43.060;25.618;2022-08-19T09:46:23;12.85;;;5.00;;
68353;SDS011;55274;43.060;25.618;2022-08-19T09:48:51;7.70;;;4.15;;
68353;SDS011;55274;43.060;25.618;2022-08-19T09:51:21;11.60;;;4.68;;
68353;SDS011;55274;43.060;25.618;2022-08-19T09:53:50;9.95;;;4.32;;
68353;SDS011;55274;43.060;25.618;2022-08-19T09:56:19;9.15;;;4.30;;
68353;SDS011;55274;43.060;25.618;2022-08-19T09:58:46;7.40;;;4.15;;
68353;SDS011;55274;43.060;25.618;2022-08-19T10:01:23;20.70;;;4.35;;
68353;SDS011;55274;43.060;25.618;2022-08-19T10:03:52;6.57;;;4.63;;
68353;SDS011;55274;43.060;25.618;2022-08-19T10:06:21;35.92;;;5.60;;
68353;SDS011;55274;43.060;25.618;2022-08-19T10:08:49;37.63;;;6.53;;
68353;SDS011;55274;43.060;25.618;2022-08-19T10:11:17;19.08;;;4.35;;
68353;SDS011;55274;43.060;25.618;2022-08-19T10:13:44;10.05;;;4.50;;
68353;SDS011;55274;43.060;25.618;2022-08-19T10:16:12;8.57;;;3.90;;
68353;SDS011;55274;43.060;25.618;2022-08-19T10:18:41;7.10;;;4.20;;
68353;SDS011;55274;43.060;25.618;2022-08-19T10:23:51;5.72;;;4.25;;
68353;SDS011;55274;43.060;25.618;2022-08-19T10:26:29;5.75;;;4.38;;
68353;SDS011;55274;43.060;25.618;2022-08-19T10:29:01;7.22;;;3.97;;
68353;SDS011;55274;43.060;25.618;2022-08-19T10:31:30;5.78;;;4.22;;
68353;SDS011;55274;43.060;25.618;2022-08-19T10:33:57;15.75;;;4.82;;
68353;SDS011;55274;43.060;25.618;2022-08-19T10:36:27;33.17;;;5.90;;
68353;SDS011;55274;43.060;25.618;2022-08-19T10:38:55;10.07;;;4.60;;
68353;SDS011;55274;43.060;25.618;2022-08-19T10:41:28;16.25;;;5.13;;
68353;SDS011;55274;43.060;25.618;2022-08-19T10:44:00;24.75;;;5.63;;
68353;SDS011;55274;43.060;25.618;2022-08-19T10:46:28;10.18;;;4.95;;
68353;SDS011;55274;43.060;25.618;2022-08-19T10:49:02;17.17;;;4.93;;
68353;SDS011;55274;43.060;25.618;2022-08-19T10:51:30;17.45;;;4.63;;
68353;SDS011;55274;43.060;25.618;2022-08-19T10:54:15;12.48;;;5.15;;
68353;SDS011;55274;43.060;25.618;2022-08-19T10:56:42;5.93;;;4.53;;
68353;SDS011;55274;43.060;25.618;2022-08-19T10:59:21;7.00;;;4.15;;
68353;SDS011;55274;43.060;25.618;2022-08-19T11:01:51;6.72;;;4.03;;
68353;SDS011;55274;43.060;25.618;2022-08-19T11:04:17;7.72;;;4.25;;
68353;SDS011;55274;43.060;25.618;2022-08-19T11:06:45;9.88;;;4.97;;
68353;SDS011;55274;43.060;25.618;2022-08-19T11:09:22;13.48;;;4.45;;
68353;SDS011;55274;43.060;25.618;2022-08-19T11:11:50;7.03;;;4.47;;
68353;SDS011;55274;43.060;25.618;2022-08-19T11:14:18;11.68;;;4.25;;
68353;SDS011;55274;43.060;25.618;2022-08-19T11:16:46;28.55;;;5.35;;
68353;SDS011;55274;43.060;25.618;2022-08-19T11:19:14;20.27;;;5.03;;
68353;SDS011;55274;43.060;25.618;2022-08-19T11:21:43;42.33;;;6.53;;
68353;SDS011;55274;43.060;25.618;2022-08-19T11:24:15;11.52;;;4.45;;
68353;SDS011;55274;43.060;25.618;2022-08-19T11:26:46;19.75;;;4.57;;
68353;SDS011;55274;43.060;25.618;2022-08-19T11:29:14;25.27;;;5.00;;
68353;SDS011;55274;43.060;25.618;2022-08-19T11:31:42;18.58;;;4.45;;
68353;SDS011;55274;43.060;25.618;2022-08-19T11:34:11;25.30;;;5.25;;
68353;SDS011;55274;43.060;25.618;2022-08-19T11:36:41;11.02;;;4.07;;
68353;SDS011;55274;43.060;25.618;2022-08-19T11:39:10;5.13;;;3.63;;
68353;SDS011;55274;43.060;25.618;2022-08-19T11:41:38;11.60;;;4.13;;
68353;SDS011;55274;43.060;25.618;2022-08-19T11:44:04;17.58;;;4.57;;
68353;SDS011;55274;43.060;25.618;2022-08-19T11:46:33;6.57;;;4.00;;
68353;SDS011;55274;43.060;25.618;2022-08-19T11:48:59;7.53;;;3.65;;
68353;SDS011;55274;43.060;25.618;2022-08-19T11:51:26;6.45;;;3.83;;
68353;SDS011;55274;43.060;25.618;2022-08-19T11:53:53;6.75;;;4.00;;
68353;SDS011;55274;43.060;25.618;2022-08-19T11:56:23;12.82;;;4.68;;
68353;SDS011;55274;43.060;25.618;2022-08-19T11:58:50;15.32;;;4.75;;
68353;SDS011;55274;43.060;25.618;2022-08-19T12:01:18;11.13;;;4.35;;
68353;SDS011;55274;43.060;25.618;2022-08-19T12:03:45;6.32;;;4.03;;
68353;SDS011;55274;43.060;25.618;2022-08-19T12:06:14;18.10;;;4.80;;
68353;SDS011;55274;43.060;25.618;2022-08-19T12:08:42;18.73;;;4.50;;
68353;SDS011;55274;43.060;25.618;2022-08-19T12:11:10;17.67;;;4.40;;
68353;SDS011;55274;43.060;25.618;2022-08-19T12:13:37;23.02;;;4.75;;
68353;SDS011;55274;43.060;25.618;2022-08-19T12:16:13;14.27;;;4.40;;
68353;SDS011;55274;43.060;25.618;2022-08-19T12:18:42;15.90;;;4.35;;
68353;SDS011;55274;43.060;25.618;2022-08-19T12:21:15;9.82;;;3.95;;
68353;SDS011;55274;43.060;25.618;2022-08-19T12:23:42;5.45;;;3.50;;
68353;SDS011;55274;43.060;25.618;2022-08-19T12:26:10;10.52;;;4.18;;
68353;SDS011;55274;43.060;25.618;2022-08-19T12:28:36;8.38;;;3.92;;
68353;SDS011;55274;43.060;25.618;2022-08-19T12:31:02;4.55;;;3.15;;
68353;SDS011;55274;43.060;25.618;2022-08-19T12:33:28;4.40;;;3.17;;
68353;SDS011;55274;43.060;25.618;2022-08-19T12:35:54;4.10;;;3.15;;
68353;SDS011;55274;43.060;25.618;2022-08-19T12:38:24;40.45;;;5.75;;
68353;SDS011;55274;43.060;25.618;2022-08-19T12:40:50;19.90;;;3.83;;
68353;SDS011;55274;43.060;25.618;2022-08-19T12:43:19;13.07;;;4.57;;
68353;SDS011;55274;43.060;25.618;2022-08-19T12:45:45;33.97;;;5.75;;
68353;SDS011;55274;43.060;25.618;2022-08-19T12:48:11;6.10;;;3.65;;
68353;SDS011;55274;43.060;25.618;2022-08-19T12:50:41;16.73;;;4.43;;
68353;SDS011;55274;43.060;25.618;2022-08-19T12:53:10;13.65;;;4.47;;
68353;SDS011;55274;43.060;25.618;2022-08-19T12:55:36;21.15;;;5.22;;
68353;SDS011;55274;43.060;25.618;2022-08-19T12:58:03;8.73;;;3.90;;
68353;SDS011;55274;43.060;25.618;2022-08-19T13:00:29;14.95;;;4.55;;
68353;SDS011;55274;43.060;25.618;2022-08-19T13:02:58;14.85;;;4.15;;
68353;SDS011;55274;43.060;25.618;2022-08-19T13:05:24;26.73;;;4.95;;
68353;SDS011;55274;43.060;25.618;2022-08-19T13:07:54;12.48;;;4.05;;
68353;SDS011;55274;43.060;25.618;2022-08-19T13:10:24;19.67;;;4.00;;
68353;SDS011;55274;43.060;25.618;2022-08-19T13:12:54;21.35;;;4.25;;
68353;SDS011;55274;43.060;25.618;2022-08-19T13:15:21;31.20;;;5.25;;
68353;SDS011;55274;43.060;25.618;2022-08-19T13:17:49;14.38;;;3.97;;
68353;SDS011;55274;43.060;25.618;2022-08-19T13:20:17;21.42;;;4.70;;
68353;SDS011;55274;43.060;25.618;2022-08-19T13:22:44;38.08;;;5.40;;
68353;SDS011;55274;43.060;25.618;2022-08-19T13:25:11;30.13;;;5.85;;
68353;SDS011;55274;43.060;25.618;2022-08-19T13:27:38;17.20;;;4.13;;
68353;SDS011;55274;43.060;25.618;2022-08-19T13:30:05;8.25;;;3.83;;
68353;SDS011;55274;43.060;25.618;2022-08-19T13:32:52;7.75;;;3.47;;
68353;SDS011;55274;43.060;25.618;2022-08-19T13:35:43;7.38;;;3.50;;
68353;SDS011;55274;43.060;25.618;2022-08-19T13:38:12;7.38;;;3.20;;
68353;SDS011;55274;43.060;25.618;2022-08-19T13:40:40;6.45;;;3.50;;
68353;SDS011;55274;43.060;25.618;2022-08-19T13:43:06;5.93;;;3.28;;
68353;SDS011;55274;43.060;25.618;2022-08-19T13:45:34;12.93;;;4.32;;
68353;SDS011;55274;43.060;25.618;2022-08-19T13:48:01;15.05;;;4.32;;
68353;SDS011;55274;43.060;25.618;2022-08-19T13:50:34;19.02;;;5.28;;
68353;SDS011;55274;43.060;25.618;2022-08-19T13:56:47;10.45;;;4.20;;
68353;SDS011;55274;43.060;25.618;2022-08-19T13:59:13;13.48;;;4.43;;
68353;SDS011;55274;43.060;25.618;2022-08-19T14:01:39;12.13;;;3.78;;
68353;SDS011;55274;43.060;25.618;2022-08-19T14:04:06;6.35;;;3.60;;
68353;SDS011;55274;43.060;25.618;2022-08-19T14:06:32;25.23;;;5.53;;
68353;SDS011;55274;43.060;25.618;2022-08-19T14:08:58;17.67;;;4.55;;
68353;SDS011;55274;43.060;25.618;2022-08-19T14:11:24;5.95;;;3.47;;
68353;SDS011;55274;43.060;25.618;2022-08-19T14:13:51;6.20;;;3.53;;
68353;SDS011;55274;43.060;25.618;2022-08-19T14:16:17;7.90;;;3.97;;
68353;SDS011;55274;43.060;25.618;2022-08-19T14:18:43;8.88;;;3.70;;
68353;SDS011;55274;43.060;25.618;2022-08-19T14:21:20;10.65;;;3.90;;
68353;SDS011;55274;43.060;25.618;2022-08-19T14:23:48;6.63;;;4.07;;
68353;SDS011;55274;43.060;25.618;2022-08-19T14:26:15;11.05;;;3.97;;
68353;SDS011;55274;43.060;25.618;2022-08-19T14:28:42;42.05;;;5.28;;
68353;SDS011;55274;43.060;25.618;2022-08-19T14:31:09;12.65;;;3.88;;
68353;SDS011;55274;43.060;25.618;2022-08-19T14:33:43;11.25;;;4.35;;
68353;SDS011;55274;43.060;25.618;2022-08-19T14:36:10;9.70;;;4.35;;
68353;SDS011;55274;43.060;25.618;2022-08-19T14:38:36;14.32;;;3.88;;
68353;SDS011;55274;43.060;25.618;2022-08-19T14:41:06;9.20;;;4.10;;
68353;SDS011;55274;43.060;25.618;2022-08-19T14:43:38;5.82;;;3.42;;
68353;SDS011;55274;43.060;25.618;2022-08-19T14:46:04;8.32;;;4.28;;
68353;SDS011;55274;43.060;25.618;2022-08-19T14:48:30;7.72;;;4.38;;
68353;SDS011;55274;43.060;25.618;2022-08-19T14:50:56;6.60;;;3.72;;
68353;SDS011;55274;43.060;25.618;2022-08-19T14:53:22;20.20;;;4.57;;
68353;SDS011;55274;43.060;25.618;2022-08-19T14:55:48;18.27;;;4.50;;
68353;SDS011;55274;43.060;25.618;2022-08-19T14:58:14;14.63;;;4.07;;
68353;SDS011;55274;43.060;25.618;2022-08-19T15:00:40;12.45;;;3.83;;
68353;SDS011;55274;43.060;25.618;2022-08-19T15:03:07;25.02;;;4.82;;
68353;SDS011;55274;43.060;25.618;2022-08-19T15:05:33;13.00;;;3.80;;
68353;SDS011;55274;43.060;25.618;2022-08-19T15:08:03;10.20;;;4.13;;
68353;SDS011;55274;43.060;25.618;2022-08-19T15:10:30;16.00;;;3.83;;
68353;SDS011;55274;43.060;25.618;2022-08-19T15:12:56;15.77;;;4.22;;
68353;SDS011;55274;43.060;25.618;2022-08-19T15:15:22;32.22;;;4.88;;
68353;SDS011;55274;43.060;25.618;2022-08-19T15:17:48;34.70;;;6.00;;
68353;SDS011;55274;43.060;25.618;2022-08-19T15:20:15;12.98;;;3.92;;
68353;SDS011;55274;43.060;25.618;2022-08-19T15:22:44;14.95;;;4.72;;
68353;SDS011;55274;43.060;25.618;2022-08-19T15:25:11;14.05;;;3.78;;
68353;SDS011;55274;43.060;25.618;2022-08-19T15:27:38;30.92;;;5.65;;
68353;SDS011;55274;43.060;25.618;2022-08-19T15:30:05;21.83;;;4.55;;
68353;SDS011;55274;43.060;25.618;2022-08-19T15:32:33;37.03;;;6.13;;
68353;SDS011;55274;43.060;25.618;2022-08-19T15:34:59;22.88;;;4.95;;
68353;SDS011;55274;43.060;25.618;2022-08-19T15:37:27;24.38;;;5.05;;
68353;SDS011;55274;43.060;25.618;2022-08-19T15:39:53;11.85;;;3.55;;
68353;SDS011;55274;43.060;25.618;2022-08-19T15:42:18;18.08;;;4.47;;
68353;SDS011;55274;43.060;25.618;2022-08-19T15:44:45;10.63;;;4.10;;
68353;SDS011;55274;43.060;25.618;2022-08-19T15:47:12;12.65;;;4.20;;
68353;SDS011;55274;43.060;25.618;2022-08-19T15:49:38;17.52;;;4.38;;
68353;SDS011;55274;43.060;25.618;2022-08-19T15:52:04;16.75;;;4.07;;
68353;SDS011;55274;43.060;25.618;2022-08-19T15:54:32;18.77;;;5.38;;
68353;SDS011;55274;43.060;25.618;2022-08-19T15:56:58;13.32;;;4.20;;
68353;SDS011;55274;43.060;25.618;2022-08-19T15:59:42;39.22;;;5.18;;
68353;SDS011;55274;43.060;25.618;2022-08-19T16:02:28;20.85;;;4.90;;
68353;SDS011;55274;43.060;25.618;2022-08-19T16:05:15;38.90;;;5.80;;
68353;SDS011;55274;43.060;25.618;2022-08-19T16:08:03;22.55;;;4.97;;
68353;SDS011;55274;43.060;25.618;2022-08-19T16:10:30;33.10;;;5.38;;
68353;SDS011;55274;43.060;25.618;2022-08-19T16:12:56;27.17;;;5.13;;
68353;SDS011;55274;43.060;25.618;2022-08-19T16:15:26;9.07;;;3.65;;
68353;SDS011;55274;43.060;25.618;2022-08-19T16:17:54;12.32;;;4.25;;
68353;SDS011;55274;43.060;25.618;2022-08-19T16:20:21;75.45;;;9.77;;
68353;SDS011;55274;43.060;25.618;2022-08-19T16:22:48;46.63;;;6.30;;
68353;SDS011;55274;43.060;25.618;2022-08-19T16:25:14;41.33;;;6.78;;
68353;SDS011;55274;43.060;25.618;2022-08-19T16:27:40;52.40;;;6.10;;
68353;SDS011;55274;43.060;25.618;2022-08-19T16:30:07;16.40;;;4.97;;
68353;SDS011;55274;43.060;25.618;2022-08-19T16:32:33;54.63;;;7.45;;
68353;SDS011;55274;43.060;25.618;2022-08-19T16:35:02;25.15;;;4.93;;
68353;SDS011;55274;43.060;25.618;2022-08-19T16:37:30;33.17;;;6.18;;
68353;SDS011;55274;43.060;25.618;2022-08-19T16:39:56;10.43;;;4.10;;
68353;SDS011;55274;43.060;25.618;2022-08-19T16:42:22;17.65;;;4.97;;
68353;SDS011;55274;43.060;25.618;2022-08-19T16:44:48;12.63;;;5.85;;
68353;SDS011;55274;43.060;25.618;2022-08-19T16:47:14;22.38;;;20.13;;
68353;SDS011;55274;43.060;25.618;2022-08-19T16:49:41;26.10;;;7.15;;
68353;SDS011;55274;43.060;25.618;2022-08-19T16:52:08;5.88;;;3.80;;
68353;SDS011;55274;43.060;25.618;2022-08-19T16:54:35;5.22;;;3.95;;
68353;SDS011;55274;43.060;25.618;2022-08-19T16:57:02;14.25;;;5.22;;
68353;SDS011;55274;43.060;25.618;2022-08-19T16:59:30;9.75;;;4.63;;